createdAt,value
2017-03-30T15:53:07.545Z,1015.69
2017-03-30T15:54:07.500Z,1015.66
2017-03-30T15:55:07.503Z,1015.68
2017-03-30T15:56:07.507Z,1015.7
2017-03-30T15:57:07.570Z,1015.66
2017-03-30T15:58:07.516Z,1015.66
2017-03-30T15:59:07.569Z,1015.62
2017-03-30T16:00:07.523Z,1015.64
2017-03-30T16:01:07.527Z,1015.64
2017-03-30T16:02:07.580Z,1015.63
2017-03-30T16:03:07.534Z,1015.61
2017-03-30T16:04:07.586Z,1015.56
2017-03-30T16:05:07.540Z,1015.62
2017-03-30T16:06:07.545Z,1015.61
2017-03-30T16:07:07.547Z,1015.62
2017-03-30T16:08:07.552Z,1015.61
2017-03-30T16:09:08.555Z,1015.6
2017-03-30T16:10:07.608Z,1015.58
2017-03-30T16:11:07.561Z,1015.6
2017-03-30T16:12:07.564Z,1015.59
2017-03-30T16:13:07.567Z,1015.57
2017-03-30T16:14:07.570Z,1015.55
2017-03-30T16:15:07.575Z,1015.54
2017-03-30T16:16:07.628Z,1015.5
2017-03-30T16:17:07.581Z,1015.56
2017-03-30T16:18:07.584Z,1015.54
2017-03-30T16:19:07.640Z,1015.54
2017-03-30T16:20:08.344Z,1015.55
2017-03-30T16:21:07.598Z,1015.54
2017-03-30T16:22:07.654Z,1015.59
2017-03-30T16:23:07.610Z,1015.57
2017-03-30T16:24:07.616Z,1015.57
2017-03-30T16:25:07.672Z,1015.59
2017-03-30T16:26:07.628Z,1015.54
2017-03-30T16:27:07.635Z,1015.5
2017-03-30T16:28:07.647Z,1015.56
2017-03-30T16:29:07.645Z,1015.58
2017-03-30T16:30:07.652Z,1015.55
2017-03-30T16:31:08.409Z,1015.58
2017-03-30T16:32:07.714Z,1015.57
2017-03-30T16:33:07.671Z,1015.55
2017-03-30T16:34:07.677Z,1015.55
2017-03-30T16:35:07.683Z,1015.54
2017-03-30T16:36:07.740Z,1015.55
2017-03-30T16:37:07.698Z,1015.57
2017-03-30T16:38:07.705Z,1015.54
2017-03-30T16:39:07.759Z,1015.55
2017-03-30T16:40:07.718Z,1015.56
2017-03-30T16:41:07.724Z,1015.55
2017-03-30T16:42:07.881Z,1015.53
2017-03-30T16:43:07.736Z,1015.56
2017-03-30T16:44:07.794Z,1015.54
2017-03-30T16:45:07.751Z,1015.53
2017-03-30T16:46:07.806Z,1015.49
2017-03-30T16:47:07.764Z,1015.47
2017-03-30T16:48:07.772Z,1015.46
2017-03-30T16:49:07.777Z,1015.5
2017-03-30T16:50:07.788Z,1015.49
2017-03-30T16:51:07.841Z,1015.5
2017-03-30T16:52:07.849Z,1015.49
2017-03-30T16:53:07.806Z,1015.48
2017-03-30T16:54:07.812Z,1015.47
2017-03-30T16:55:07.819Z,1015.41
2017-03-30T16:56:07.826Z,1015.4
2017-03-30T16:57:07.833Z,1015.39
2017-03-30T16:58:07.839Z,1015.33
2017-03-30T16:59:07.846Z,1015.33
2017-03-30T17:00:07.904Z,1015.32
2017-03-30T17:01:07.910Z,1015.3
2017-03-30T17:02:07.916Z,1015.31
2017-03-30T17:03:07.874Z,1015.28
2017-03-30T17:04:07.883Z,1015.28
2017-03-30T17:05:07.889Z,1015.27
2017-03-30T17:06:07.894Z,1015.23
2017-03-30T17:07:07.951Z,1015.26
2017-03-30T17:08:07.908Z,1015.29
2017-03-30T17:09:07.966Z,1015.29
2017-03-30T17:10:07.922Z,1015.27
2017-03-30T17:11:07.979Z,1015.3
2017-03-30T17:12:07.935Z,1015.29
2017-03-30T17:13:07.941Z,1015.25
2017-03-30T17:14:07.998Z,1015.29
2017-03-30T17:15:08.007Z,1015.31
2017-03-30T17:16:07.961Z,1015.27
2017-03-30T17:17:07.968Z,1015.26
2017-03-30T17:18:07.976Z,1015.25
2017-03-30T17:19:07.984Z,1015.27
2017-03-30T17:20:07.989Z,1015.25
2017-03-30T17:21:07.996Z,1015.25
2017-03-30T17:22:08.004Z,1015.25
2017-03-30T17:23:08.009Z,1015.27
2017-03-30T17:24:08.015Z,1015.3
2017-03-30T17:25:08.023Z,1015.25
2017-03-30T17:26:08.030Z,1015.3
2017-03-30T17:27:08.036Z,1015.3
2017-03-30T17:28:08.044Z,1015.27
2017-03-30T17:29:08.050Z,1015.34
2017-03-30T17:30:08.109Z,1015.35
2017-03-30T17:31:08.112Z,1015.31
2017-03-30T17:32:08.071Z,1015.32
2017-03-30T17:33:08.077Z,1015.32
2017-03-30T17:34:08.083Z,1015.33
2017-03-30T17:35:08.091Z,1015.3
2017-03-30T17:36:08.096Z,1015.3
2017-03-30T17:37:08.153Z,1015.28
2017-03-30T17:38:08.109Z,1015.31
2017-03-30T17:39:08.117Z,1015.28
2017-03-30T17:40:08.122Z,1015.32
2017-03-30T17:41:08.179Z,1015.28
2017-03-30T17:42:08.136Z,1015.28
2017-03-30T17:43:08.192Z,1015.31
2017-03-30T17:44:08.148Z,1015.32
2017-03-30T17:45:08.204Z,1015.31
2017-03-30T17:46:08.161Z,1015.31
2017-03-30T17:47:08.169Z,1015.29
2017-03-30T17:48:08.175Z,1015.29
2017-03-30T17:49:08.181Z,1015.26
2017-03-30T17:50:08.238Z,1015.27
2017-03-30T17:51:08.194Z,1015.25
2017-03-30T17:52:08.204Z,1015.25
2017-03-30T17:53:08.256Z,1015.24
2017-03-30T17:54:08.214Z,1015.25
2017-03-30T17:55:08.220Z,1015.26
2017-03-30T17:56:08.277Z,1015.23
2017-03-30T17:57:09.334Z,1015.26
2017-03-30T17:58:08.240Z,1015.22
2017-03-30T17:59:08.298Z,1015.24
2017-03-30T18:00:08.254Z,1015.26
2017-03-30T18:01:08.260Z,1015.23
2017-03-30T18:02:08.267Z,1015.23
2017-03-30T18:03:08.272Z,1015.23
2017-03-30T18:04:08.279Z,1015.2
2017-03-30T18:05:08.286Z,1015.21
2017-03-30T18:06:08.293Z,1015.18
2017-03-30T18:07:08.300Z,1015.2
2017-03-30T18:08:08.855Z,1015.2
2017-03-30T18:09:08.312Z,1015.22
2017-03-30T18:10:08.368Z,1015.2
2017-03-30T18:11:08.325Z,1015.19
2017-03-30T18:12:08.332Z,1015.23
2017-03-30T18:13:08.389Z,1015.18
2017-03-30T18:14:08.345Z,1015.17
2017-03-30T18:15:08.351Z,1015.18
2017-03-30T18:16:08.359Z,1015.15
2017-03-30T18:17:08.365Z,1015.16
2017-03-30T18:18:08.370Z,1015.16
2017-03-30T18:19:08.427Z,1015.23
2017-03-30T18:20:08.384Z,1015.2
2017-03-30T18:21:08.391Z,1015.2
2017-03-30T18:22:08.397Z,1015.17
2017-03-30T18:23:08.404Z,1015.2
2017-03-30T18:24:08.411Z,1015.2
2017-03-30T18:25:08.467Z,1015.18
2017-03-30T18:26:08.473Z,1015.22
2017-03-30T18:27:08.430Z,1015.17
2017-03-30T18:28:08.437Z,1015.2
2017-03-30T18:29:08.494Z,1015.26
2017-03-30T18:30:08.499Z,1015.24
2017-03-30T18:31:08.457Z,1015.21
2017-03-30T18:32:08.462Z,1015.26
2017-03-30T18:33:08.470Z,1015.2
2017-03-30T18:34:08.475Z,1015.24
2017-03-30T18:35:08.485Z,1015.26
2017-03-30T18:36:08.490Z,1015.22
2017-03-30T18:37:08.495Z,1015.25
2017-03-30T18:38:08.502Z,1015.23
2017-03-30T18:39:08.511Z,1015.23
2017-03-30T18:40:08.515Z,1015.22
2017-03-30T18:41:08.522Z,1015.22
2017-03-30T18:42:08.579Z,1015.27
2017-03-30T18:43:09.686Z,1015.24
2017-03-30T18:44:08.593Z,1015.21
2017-03-30T18:45:08.548Z,1015.26
2017-03-30T18:46:08.555Z,1015.21
2017-03-30T18:47:08.562Z,1015.26
2017-03-30T18:48:08.568Z,1015.22
2017-03-30T18:49:08.575Z,1015.25
2017-03-30T18:50:08.581Z,1015.23
2017-03-30T18:51:08.638Z,1015.21
2017-03-30T18:52:09.145Z,1015.21
2017-03-30T18:53:08.601Z,1015.23
2017-03-30T18:54:09.406Z,1015.19
2017-03-30T18:55:08.615Z,1015.18
2017-03-30T18:56:08.623Z,1015.23
2017-03-30T18:57:08.678Z,1015.24
2017-03-30T18:58:08.683Z,1015.22
2017-03-30T18:59:08.641Z,1015.23
2017-03-30T19:00:08.700Z,1015.24
2017-03-30T19:01:08.653Z,1015.22
2017-03-30T19:02:08.658Z,1015.24
2017-03-30T19:03:08.665Z,1015.2
2017-03-30T19:04:08.673Z,1015.23
2017-03-30T19:05:09.129Z,1015.22
2017-03-30T19:06:08.684Z,1015.24
2017-03-30T19:07:08.692Z,1015.22
2017-03-30T19:08:08.748Z,1015.25
2017-03-30T19:09:08.704Z,1015.24
2017-03-30T19:10:08.711Z,1015.23
2017-03-30T19:11:08.718Z,1015.24
2017-03-30T19:12:08.725Z,1015.26
2017-03-30T19:13:08.731Z,1015.22
2017-03-30T19:14:08.786Z,1015.22
2017-03-30T19:15:08.743Z,1015.27
2017-03-30T19:16:09.351Z,1015.21
2017-03-30T19:17:08.755Z,1015.19
2017-03-30T19:18:08.763Z,1015.22
2017-03-30T19:19:08.769Z,1015.22
2017-03-30T19:20:08.775Z,1015.2
2017-03-30T19:21:08.782Z,1015.17
2017-03-30T19:22:08.789Z,1015.13
2017-03-30T19:23:08.795Z,1015.17
2017-03-30T19:24:08.802Z,1015.21
2017-03-30T19:25:08.808Z,1015.18
2017-03-30T19:26:08.814Z,1015.17
2017-03-30T19:27:09.170Z,1015.19
2017-03-30T19:28:08.828Z,1015.18
2017-03-30T19:29:08.884Z,1015.17
2017-03-30T19:30:08.842Z,1015.15
2017-03-30T19:31:08.847Z,1015.18
2017-03-30T19:32:08.904Z,1015.15
2017-03-30T19:33:08.860Z,1015.13
2017-03-30T19:34:08.865Z,1015.08
2017-03-30T19:35:08.872Z,1015.13
2017-03-30T19:36:08.880Z,1015.16
2017-03-30T19:37:08.938Z,1015.11
2017-03-30T19:38:08.947Z,1015.14
2017-03-30T19:39:08.899Z,1015.15
2017-03-30T19:40:08.907Z,1015.09
2017-03-30T19:41:08.912Z,1015.13
2017-03-30T19:42:08.919Z,1015.09
2017-03-30T19:43:08.926Z,1015.13
2017-03-30T19:44:08.931Z,1015.09
2017-03-30T19:45:08.989Z,1015.11
2017-03-30T19:46:08.995Z,1015.11
2017-03-30T19:47:08.951Z,1015.09
2017-03-30T19:48:08.965Z,1015.11
2017-03-30T19:49:08.963Z,1015.1
2017-03-30T19:50:08.969Z,1015.09
2017-03-30T19:51:08.976Z,1015.06
2017-03-30T19:52:08.983Z,1015.06
2017-03-30T19:53:09.038Z,1015.08
2017-03-30T19:54:08.995Z,1015.06
2017-03-30T19:55:09.006Z,1015.05
2017-03-30T19:56:09.008Z,1015.05
2017-03-30T19:57:09.013Z,1015.03
2017-03-30T19:58:09.022Z,1015.06
2017-03-30T19:59:09.027Z,1015.08
2017-03-30T20:00:09.062Z,1015.05
2017-03-30T20:01:09.040Z,1015.04
2017-03-30T20:02:09.046Z,1015.05
2017-03-30T20:03:09.055Z,1015.04
2017-03-30T20:04:09.059Z,1015.04
2017-03-30T20:05:09.093Z,1015.05
2017-03-30T20:06:09.072Z,1015.04
2017-03-30T20:07:09.079Z,1015.01
2017-03-30T20:08:09.084Z,1015.04
2017-03-30T20:09:09.143Z,1015.02
2017-03-30T20:10:09.149Z,1015
2017-03-30T20:11:09.104Z,1015.04
2017-03-30T20:12:09.112Z,1014.98
2017-03-30T20:13:09.118Z,1015
2017-03-30T20:14:09.124Z,1015.01
2017-03-30T20:15:09.131Z,1015
2017-03-30T20:16:09.185Z,1014.99
2017-03-30T20:17:09.192Z,1015.01
2017-03-30T20:18:09.150Z,1015.01
2017-03-30T20:19:09.155Z,1015.01
2017-03-30T20:20:09.364Z,1014.98
2017-03-30T20:21:09.169Z,1014.98
2017-03-30T20:22:09.176Z,1014.94
2017-03-30T20:23:09.181Z,1014.97
2017-03-30T20:24:09.188Z,1014.92
2017-03-30T20:25:09.246Z,1014.94
2017-03-30T20:26:09.199Z,1014.9
2017-03-30T20:27:09.255Z,1014.9
2017-03-30T20:28:09.213Z,1014.92
2017-03-30T20:29:09.219Z,1014.9
2017-03-30T20:30:09.225Z,1014.89
2017-03-30T20:31:09.232Z,1014.88
2017-03-30T20:32:09.239Z,1014.9
2017-03-30T20:33:09.293Z,1014.84
2017-03-30T20:34:09.252Z,1014.83
2017-03-30T20:35:09.306Z,1014.81
2017-03-30T20:36:09.265Z,1014.85
2017-03-30T20:37:09.320Z,1014.81
2017-03-30T20:38:09.276Z,1014.82
2017-03-30T20:39:09.332Z,1014.83
2017-03-30T20:40:09.339Z,1014.83
2017-03-30T20:41:09.294Z,1014.78
2017-03-30T20:42:09.352Z,1014.78
2017-03-30T20:43:09.307Z,1014.8
2017-03-30T20:44:09.314Z,1014.78
2017-03-30T20:45:09.369Z,1014.78
2017-03-30T20:46:09.326Z,1014.74
2017-03-30T20:47:09.331Z,1014.77
2017-03-30T20:48:09.387Z,1014.76
2017-03-30T20:49:09.345Z,1014.76
2017-03-30T20:50:09.351Z,1014.73
2017-03-30T20:51:09.358Z,1014.75
2017-03-30T20:52:09.364Z,1014.72
2017-03-30T20:53:09.370Z,1014.73
2017-03-30T20:54:09.377Z,1014.71
2017-03-30T20:55:09.432Z,1014.76
2017-03-30T20:56:09.390Z,1014.74
2017-03-30T20:57:09.396Z,1014.73
2017-03-30T20:58:09.403Z,1014.75
2017-03-30T20:59:09.407Z,1014.76
2017-03-30T21:00:09.465Z,1014.74
2017-03-30T21:01:09.419Z,1014.75
2017-03-30T21:02:09.425Z,1014.77
2017-03-30T21:03:09.433Z,1014.75
2017-03-30T21:04:09.439Z,1014.77
2017-03-30T21:05:09.446Z,1014.75
2017-03-30T21:06:09.501Z,1014.73
2017-03-30T21:07:09.458Z,1014.76
2017-03-30T21:08:09.464Z,1014.76
2017-03-30T21:09:09.469Z,1014.76
2017-03-30T21:10:09.477Z,1014.73
2017-03-30T21:11:09.484Z,1014.72
2017-03-30T21:12:09.542Z,1014.73
2017-03-30T21:13:09.547Z,1014.72
2017-03-30T21:14:09.503Z,1014.7
2017-03-30T21:15:10.613Z,1014.72
2017-03-30T21:16:09.516Z,1014.68
2017-03-30T21:17:09.572Z,1014.67
2017-03-30T21:18:09.528Z,1014.68
2017-03-30T21:19:09.534Z,1014.66
2017-03-30T21:20:09.540Z,1014.62
2017-03-30T21:21:09.545Z,1014.61
2017-03-30T21:22:09.553Z,1014.59
2017-03-30T21:23:09.560Z,1014.62
2017-03-30T21:24:09.614Z,1014.6
2017-03-30T21:25:09.622Z,1014.61
2017-03-30T21:26:10.478Z,1014.62
2017-03-30T21:27:09.585Z,1014.55
2017-03-30T21:28:09.588Z,1014.55
2017-03-30T21:29:09.646Z,1014.51
2017-03-30T21:30:09.653Z,1014.49
2017-03-30T21:31:09.661Z,1014.46
2017-03-30T21:32:09.615Z,1014.45
2017-03-30T21:33:09.620Z,1014.47
2017-03-30T21:34:09.627Z,1014.46
2017-03-30T21:35:09.634Z,1014.45
2017-03-30T21:36:09.689Z,1014.45
2017-03-30T21:37:10.297Z,1014.41
2017-03-30T21:38:09.703Z,1014.43
2017-03-30T21:39:09.655Z,1014.46
2017-03-30T21:40:09.664Z,1014.43
2017-03-30T21:41:09.671Z,1014.4
2017-03-30T21:42:09.676Z,1014.39
2017-03-30T21:43:09.733Z,1014.39
2017-03-30T21:44:09.688Z,1014.35
2017-03-30T21:45:09.695Z,1014.37
2017-03-30T21:46:09.700Z,1014.34
2017-03-30T21:47:09.757Z,1014.38
2017-03-30T21:48:10.914Z,1014.32
2017-03-30T21:49:09.719Z,1014.36
2017-03-30T21:50:09.726Z,1014.33
2017-03-30T21:51:09.731Z,1014.31
2017-03-30T21:52:09.740Z,1014.29
2017-03-30T21:53:09.794Z,1014.28
2017-03-30T21:54:09.750Z,1014.28
2017-03-30T21:55:09.757Z,1014.29
2017-03-30T21:56:09.768Z,1014.3
2017-03-30T21:57:09.819Z,1014.23
2017-03-30T21:58:09.775Z,1014.26
2017-03-30T21:59:10.482Z,1014.23
2017-03-30T22:00:09.787Z,1014.24
2017-03-30T22:01:09.797Z,1014.25
2017-03-30T22:02:09.800Z,1014.21
2017-03-30T22:03:09.806Z,1014.16
2017-03-30T22:04:09.810Z,1014.15
2017-03-30T22:05:09.817Z,1014.1
2017-03-30T22:06:09.824Z,1014.15
2017-03-30T22:07:09.830Z,1014.14
2017-03-30T22:08:09.835Z,1014.12
2017-03-30T22:09:09.841Z,1014.15
2017-03-30T22:10:10.550Z,1014.13
2017-03-30T22:11:09.854Z,1014.11
2017-03-30T22:12:09.861Z,1014.11
2017-03-30T22:13:09.866Z,1014.12
2017-03-30T22:14:09.872Z,1014.12
2017-03-30T22:15:09.879Z,1014.08
2017-03-30T22:16:09.886Z,1014.09
2017-03-30T22:17:09.942Z,1014.1
2017-03-30T22:18:09.897Z,1014.09
2017-03-30T22:19:09.903Z,1014.07
2017-03-30T22:20:09.910Z,1014.09
2017-03-30T22:21:10.867Z,1014.07
2017-03-30T22:22:09.923Z,1014.1
2017-03-30T22:23:09.928Z,1014.02
2017-03-30T22:24:09.984Z,1014.05
2017-03-30T22:25:09.989Z,1014.04
2017-03-30T22:26:09.996Z,1014.03
2017-03-30T22:27:09.952Z,1013.98
2017-03-30T22:28:09.964Z,1013.99
2017-03-30T22:29:09.965Z,1013.96
2017-03-30T22:30:09.972Z,1013.99
2017-03-30T22:31:09.976Z,1013.96
2017-03-30T22:32:09.984Z,1013.97
2017-03-30T22:33:09.988Z,1013.91
2017-03-30T22:34:10.044Z,1013.92
2017-03-30T22:35:10.001Z,1013.91
2017-03-30T22:36:10.006Z,1013.88
2017-03-30T22:37:10.011Z,1013.93
2017-03-30T22:38:10.017Z,1013.91
2017-03-30T22:39:10.024Z,1013.88
2017-03-30T22:40:10.031Z,1013.87
2017-03-30T22:41:10.037Z,1013.85
2017-03-30T22:42:10.043Z,1013.86
2017-03-30T22:43:11.201Z,1013.84
2017-03-30T22:44:10.107Z,1013.84
2017-03-30T22:45:10.112Z,1013.83
2017-03-30T22:46:10.067Z,1013.84
2017-03-30T22:47:10.073Z,1013.79
2017-03-30T22:48:10.079Z,1013.83
2017-03-30T22:49:10.086Z,1013.81
2017-03-30T22:50:10.091Z,1013.8
2017-03-30T22:51:10.099Z,1013.82
2017-03-30T22:52:10.104Z,1013.79
2017-03-30T22:53:10.110Z,1013.74
2017-03-30T22:54:11.216Z,1013.77
2017-03-30T22:55:10.119Z,1013.74
2017-03-30T22:56:10.128Z,1013.77
2017-03-30T22:57:10.134Z,1013.72
2017-03-30T22:58:10.139Z,1013.72
2017-03-30T22:59:10.145Z,1013.68
2017-03-30T23:00:10.151Z,1013.67
2017-03-30T23:01:10.158Z,1013.69
2017-03-30T23:02:10.165Z,1013.69
2017-03-30T23:03:10.170Z,1013.66
2017-03-30T23:04:10.176Z,1013.64
2017-03-30T23:05:10.982Z,1013.67
2017-03-30T23:06:10.187Z,1013.66
2017-03-30T23:07:10.244Z,1013.65
2017-03-30T23:08:10.200Z,1013.64
2017-03-30T23:09:10.206Z,1013.58
2017-03-30T23:10:10.561Z,1013.59
2017-03-30T23:11:10.218Z,1013.54
2017-03-30T23:12:10.223Z,1013.53
2017-03-30T23:13:10.228Z,1013.56
2017-03-30T23:14:10.235Z,1013.51
2017-03-30T23:15:10.241Z,1013.52
2017-03-30T23:16:10.898Z,1013.49
2017-03-30T23:17:10.250Z,1013.48
2017-03-30T23:18:10.258Z,1013.49
2017-03-30T23:19:10.314Z,1013.47
2017-03-30T23:20:10.271Z,1013.44
2017-03-30T23:21:10.276Z,1013.42
2017-03-30T23:22:10.281Z,1013.4
2017-03-30T23:23:10.288Z,1013.39
2017-03-30T23:24:10.293Z,1013.39
2017-03-30T23:25:10.299Z,1013.42
2017-03-30T23:26:10.305Z,1013.41
2017-03-30T23:27:11.012Z,1013.41
2017-03-30T23:28:10.317Z,1013.42
2017-03-30T23:29:10.324Z,1013.39
2017-03-30T23:30:10.330Z,1013.41
2017-03-30T23:31:10.337Z,1013.31
2017-03-30T23:32:10.340Z,1013.33
2017-03-30T23:33:10.347Z,1013.32
2017-03-30T23:34:10.403Z,1013.3
2017-03-30T23:35:10.409Z,1013.29
2017-03-30T23:36:10.365Z,1013.28
2017-03-30T23:37:10.372Z,1013.25
2017-03-30T23:38:10.677Z,1013.23
2017-03-30T23:39:10.382Z,1013.23
2017-03-30T23:40:10.437Z,1013.21
2017-03-30T23:41:10.445Z,1013.19
2017-03-30T23:42:10.402Z,1013.16
2017-03-30T23:43:10.457Z,1013.15
2017-03-30T23:44:10.413Z,1013.16
2017-03-30T23:45:10.418Z,1013.15
2017-03-30T23:46:10.425Z,1013.11
2017-03-30T23:47:10.481Z,1013.1
2017-03-30T23:48:10.487Z,1013.09
2017-03-30T23:49:10.744Z,1013.07
2017-03-30T23:50:10.448Z,1013.04
2017-03-30T23:51:10.503Z,1013.01
2017-03-30T23:52:10.460Z,1013.01
2017-03-30T23:53:10.768Z,1013.01
2017-03-30T23:54:10.522Z,1012.99
2017-03-30T23:55:10.478Z,1012.99
2017-03-30T23:56:10.485Z,1012.93
2017-03-30T23:57:10.490Z,1012.92
2017-03-30T23:58:10.496Z,1012.9
2017-03-30T23:59:10.553Z,1012.9
